Time;durP1;ratioP1;P1;durP2;ratioP2;P2;SDS_P1;SDS_P2;PMS_P1;PMS_P2;Temp;Humidity;BMP_temperature;BMP_pressure;BME280_temperature;BME280_humidity;BME280_pressure;Samples;Min_cycle;Max_cycle;Signal;HPM_P1;HPM_P2
2023/11/16 00:02:23;;;;;;;2.90;2.03;;;8.50;99.90;;;;;;5031925;28;20227;-64
2023/11/16 00:04:50;;;;;;;4.37;2.53;;;8.40;99.90;;;;;;5043962;28;20238;-63
2023/11/16 00:07:17;;;;;;;2.23;2.00;;;8.40;99.90;;;;;;5020399;28;20557;-62
2023/11/16 00:09:44;;;;;;;2.60;1.90;;;6.50;99.90;;;;;;5049797;28;20250;-64
2023/11/16 00:12:12;;;;;;;3.37;2.20;;;8.40;99.90;;;;;;5031291;28;20698;-63
2023/11/16 00:14:39;;;;;;;2.87;2.23;;;8.40;99.90;;;;;;5045741;28;20193;-64
2023/11/16 00:17:08;;;;;;;3.13;2.33;;;8.40;99.90;;;;;;5053455;28;20243;-63
2023/11/16 00:19:36;;;;;;;2.37;2.10;;;8.40;99.90;;;;;;5053563;28;20602;-64
2023/11/16 00:22:04;;;;;;;3.13;2.20;;;8.40;99.90;;;;;;5041510;28;20201;-63
2023/11/16 00:24:31;;;;;;;2.57;1.90;;;8.40;99.90;;;;;;5051558;28;20314;-64
2023/11/16 00:26:58;;;;;;;2.53;1.80;;;8.40;99.90;;;;;;5053490;28;20228;-63
2023/11/16 00:29:25;;;;;;;2.03;1.70;;;8.40;99.90;;;;;;5054225;28;20196;-63
2023/11/16 00:31:53;;;;;;;3.10;2.40;;;8.40;99.90;;;;;;5053172;28;20197;-65
2023/11/16 00:34:22;;;;;;;1.87;1.73;;;8.40;99.90;;;;;;5053160;28;20201;-62
2023/11/16 00:36:49;;;;;;;2.47;1.80;;;8.40;99.90;;;;;;5053933;28;20194;-63
2023/11/16 00:39:19;;;;;;;2.23;2.00;;;8.40;99.90;;;;;;5035828;28;20648;-63
2023/11/16 00:41:46;;;;;;;2.07;1.57;;;8.40;99.90;;;;;;5053134;28;20203;-64
2023/11/16 00:44:14;;;;;;;2.00;1.80;;;8.40;99.90;;;;;;5036265;28;20198;-64
2023/11/16 00:46:43;;;;;;;2.83;2.33;;;8.30;99.90;;;;;;5035979;28;20278;-64
2023/11/16 00:49:11;;;;;;;2.57;2.00;;;8.20;99.90;;;;;;5052870;28;20609;-64
2023/11/16 00:51:39;;;;;;;2.47;1.90;;;8.20;99.90;;;;;;5045029;28;20202;-64
2023/11/16 00:54:06;;;;;;;3.27;2.50;;;8.10;99.90;;;;;;5035282;28;20250;-64
2023/11/16 00:56:34;;;;;;;2.17;1.97;;;8.10;99.90;;;;;;5053057;28;20208;-64
2023/11/16 00:59:03;;;;;;;2.73;2.43;;;8.10;99.90;;;;;;5034720;28;20212;-65
2023/11/16 01:01:32;;;;;;;2.37;1.93;;;8.00;99.90;;;;;;5047709;28;21132;-63
2023/11/16 01:04:00;;;;;;;3.43;2.13;;;8.10;99.90;;;;;;5049355;28;20240;-63
2023/11/16 01:06:28;;;;;;;1.73;1.63;;;8.10;99.90;;;;;;5053719;28;20542;-63
2023/11/16 01:08:57;;;;;;;2.30;1.90;;;8.10;99.90;;;;;;5034548;28;20207;-63
2023/11/16 01:11:28;;;;;;;2.13;2.00;;;8.00;99.90;;;;;;5052395;28;20196;-64
2023/11/16 01:13:56;;;;;;;2.27;1.93;;;8.00;99.90;;;;;;5052825;28;20726;-64
2023/11/16 01:16:30;;;;;;;2.27;1.70;;;8.10;99.90;;;;;;5050413;28;20200;-64
2023/11/16 01:19:00;;;;;;;1.50;1.40;;;8.10;99.90;;;;;;5051593;28;20220;-64
2023/11/16 01:21:27;;;;;;;2.40;1.63;;;8.10;99.90;;;;;;5053261;28;20199;-64
2023/11/16 01:24:02;;;;;;;2.70;1.60;;;8.20;99.90;;;;;;5050803;28;20568;-63
2023/11/16 01:26:32;;;;;;;1.40;1.30;;;8.20;99.90;;;;;;5051859;28;20211;-63
2023/11/16 01:29:01;;;;;;;1.80;1.50;;;8.20;99.90;;;;;;5052751;28;20199;-63
2023/11/16 01:31:29;;;;;;;1.93;1.53;;;8.20;99.90;;;;;;5033864;28;20190;-63
2023/11/16 01:33:56;;;;;;;1.50;1.33;;;8.20;99.90;;;;;;5051550;28;20207;-63
2023/11/16 01:36:24;;;;;;;1.60;1.50;;;8.10;99.90;;;;;;5052377;28;20732;-63
2023/11/16 01:38:51;;;;;;;1.47;1.37;;;8.10;99.90;;;;;;5051985;28;20194;-64
2023/11/16 01:41:19;;;;;;;2.23;1.87;;;8.10;99.90;;;;;;5052105;28;20208;-63
2023/11/16 01:43:47;;;;;;;2.10;1.63;;;8.10;99.90;;;;;;5052848;28;20599;-63
2023/11/16 01:46:15;;;;;;;1.77;1.50;;;8.00;99.90;;;;;;5052580;28;20224;-63
2023/11/16 01:48:44;;;;;;;1.60;1.40;;;8.00;99.90;;;;;;5051568;28;20197;-63
2023/11/16 01:51:14;;;;;;;1.77;1.30;;;8.00;99.90;;;;;;5052458;28;20557;-63
2023/11/16 01:53:44;;;;;;;2.03;1.60;;;8.00;99.90;;;;;;5033548;28;20202;-63
2023/11/16 01:56:15;;;;;;;2.00;1.70;;;8.00;99.90;;;;;;5034604;28;20222;-63
2023/11/16 01:58:44;;;;;;;1.70;1.60;;;7.90;99.90;;;;;;5048094;28;20246;-63
2023/11/16 02:01:15;;;;;;;3.60;1.93;;;7.80;99.90;;;;;;5044679;28;20566;-63
2023/11/16 02:03:44;;;;;;;1.97;1.70;;;7.80;99.90;;;;;;5041716;28;22091;-63
2023/11/16 02:06:11;;;;;;;1.83;1.67;;;7.80;99.90;;;;;;5034290;28;20213;-63
2023/11/16 02:08:38;;;;;;;1.57;1.43;;;7.90;99.90;;;;;;5051551;28;20200;-63
2023/11/16 02:11:06;;;;;;;1.93;1.70;;;7.90;99.90;;;;;;5051814;28;20279;-63
2023/11/16 02:13:34;;;;;;;2.33;1.83;;;7.90;99.90;;;;;;5033242;28;20219;-63
2023/11/16 02:16:03;;;;;;;3.67;1.90;;;7.90;99.90;;;;;;5051991;28;20197;-63
2023/11/16 02:18:33;;;;;;;2.07;1.67;;;7.80;99.90;;;;;;5032411;28;20214;-63
2023/11/16 02:21:00;;;;;;;1.97;1.70;;;7.80;99.90;;;;;;5042994;28;20655;-63
2023/11/16 02:23:31;;;;;;;1.50;1.23;;;7.80;99.90;;;;;;5050861;28;20316;-63
2023/11/16 02:25:58;;;;;;;1.40;1.30;;;7.90;99.90;;;;;;5052259;28;20209;-63
2023/11/16 02:28:25;;;;;;;1.50;1.40;;;7.90;99.90;;;;;;5050962;28;20630;-63
2023/11/16 02:30:53;;;;;;;2.27;1.70;;;8.00;99.90;;;;;;5028883;28;20217;-63
2023/11/16 02:33:20;;;;;;;1.83;1.63;;;7.90;99.90;;;;;;5031048;28;20216;-64
2023/11/16 02:35:48;;;;;;;1.30;1.07;;;7.90;99.90;;;;;;5049372;28;20250;-63
2023/11/16 02:38:16;;;;;;;1.20;1.10;;;7.90;99.90;;;;;;5031994;28;20253;-63
2023/11/16 02:40:45;;;;;;;1.20;1.20;;;7.90;99.90;;;;;;5034068;28;20255;-63
2023/11/16 02:43:14;;;;;;;1.20;1.10;;;7.90;99.90;;;;;;5050627;28;20708;-63
2023/11/16 02:45:42;;;;;;;1.63;1.53;;;7.90;99.90;;;;;;5052121;28;20220;-63
2023/11/16 02:48:09;;;;;;;1.37;1.27;;;7.90;99.90;;;;;;5045273;28;20208;-63
2023/11/16 02:50:36;;;;;;;1.80;1.50;;;7.90;99.90;;;;;;5052286;28;20613;-63
2023/11/16 02:53:04;;;;;;;1.60;1.50;;;7.70;99.90;;;;;;5044948;28;20196;-63
2023/11/16 02:55:31;;;;;;;1.37;1.27;;;7.80;99.90;;;;;;5052186;28;20217;-63
2023/11/16 02:57:59;;;;;;;1.50;1.40;;;7.80;99.90;;;;;;5045074;28;20190;-63
2023/11/16 03:00:26;;;;;;;1.77;1.67;;;7.80;99.90;;;;;;5048424;28;20220;-63
2023/11/16 03:02:55;;;;;;;1.70;1.60;;;7.70;99.90;;;;;;5047969;28;20201;-64
2023/11/16 03:05:25;;;;;;;2.07;1.80;;;7.70;99.90;;;;;;5051094;28;20713;-63
2023/11/16 03:07:52;;;;;;;1.50;1.20;;;7.70;99.90;;;;;;5046867;28;20544;-64
2023/11/16 03:10:23;;;;;;;1.97;1.50;;;7.80;99.90;;;;;;5030963;28;20205;-64
2023/11/16 03:12:52;;;;;;;6.33;1.37;;;7.80;99.90;;;;;;5042721;28;20671;-64
2023/11/16 03:15:21;;;;;;;1.50;1.40;;;7.80;99.90;;;;;;5051138;28;20274;-64
2023/11/16 03:17:48;;;;;;;1.10;1.10;;;7.80;99.90;;;;;;5032522;28;20197;-63
2023/11/16 03:20:16;;;;;;;1.20;1.10;;;7.80;99.90;;;;;;5032411;28;20214;-63
2023/11/16 03:22:43;;;;;;;1.23;1.13;;;7.80;99.90;;;;;;5050964;28;20234;-63
2023/11/16 03:25:11;;;;;;;1.23;1.10;;;7.90;99.90;;;;;;5032573;28;20211;-62
2023/11/16 03:27:38;;;;;;;1.30;1.20;;;7.90;99.90;;;;;;5033182;28;20724;-62
2023/11/16 03:30:06;;;;;;;1.20;1.10;;;7.90;99.90;;;;;;5051129;28;20206;-63
2023/11/16 03:32:35;;;;;;;1.23;1.13;;;7.80;99.90;;;;;;5043449;28;20200;-63
2023/11/16 03:35:05;;;;;;;1.13;0.97;;;7.80;99.90;;;;;;5032238;28;20204;-64
2023/11/16 03:37:32;;;;;;;1.20;1.10;;;7.80;99.90;;;;;;5051135;28;20213;-63
2023/11/16 03:39:59;;;;;;;1.67;1.53;;;7.70;99.90;;;;;;5050226;28;20200;-63
2023/11/16 03:42:26;;;;;;;1.73;1.50;;;7.70;99.90;;;;;;5049997;28;20198;-64
2023/11/16 03:44:53;;;;;;;2.83;1.50;;;7.60;99.90;;;;;;5032016;28;20205;-63
2023/11/16 03:47:20;;;;;;;2.67;1.47;;;7.60;99.90;;;;;;5050248;28;20553;-63
2023/11/16 03:49:49;;;;;;;2.27;1.60;;;7.50;99.90;;;;;;5049337;28;20588;-63
2023/11/16 03:52:16;;;;;;;2.80;1.67;;;7.50;99.90;;;;;;5046591;28;20186;-63
2023/11/16 03:54:44;;;;;;;1.90;1.37;;;7.50;99.90;;;;;;5048936;28;20559;-63
2023/11/16 03:57:12;;;;;;;2.40;1.87;;;7.50;99.90;;;;;;5040167;28;20196;-64
2023/11/16 03:59:39;;;;;;;1.50;1.40;;;7.50;99.90;;;;;;5050226;28;20545;-72
2023/11/16 04:02:05;;;;;;;1.53;1.37;;;7.50;99.90;;;;;;5035062;28;20198;-65
2023/11/16 04:04:32;;;;;;;1.50;1.40;;;7.50;99.90;;;;;;5049449;28;20239;-70
2023/11/16 04:07:01;;;;;;;1.70;1.60;;;7.50;99.90;;;;;;5031488;28;20208;-64
2023/11/16 04:09:28;;;;;;;1.70;1.60;;;7.50;99.90;;;;;;5031482;28;20208;-64
2023/11/16 04:11:56;;;;;;;1.97;1.57;;;7.60;99.90;;;;;;5031104;28;20691;-64
2023/11/16 04:14:23;;;;;;;1.57;1.47;;;7.60;99.90;;;;;;5032200;28;20276;-64
2023/11/16 04:16:53;;;;;;;1.80;1.40;;;7.60;99.90;;;;;;5049539;28;20286;-64
2023/11/16 04:19:21;;;;;;;1.50;1.40;;;7.60;99.90;;;;;;5039174;28;20308;-64
2023/11/16 04:21:49;;;;;;;1.70;1.60;;;7.60;99.90;;;;;;5050198;28;20413;-64
2023/11/16 04:24:22;;;;;;;1.67;1.57;;;7.60;99.90;;;;;;5040442;28;20614;-64
2023/11/16 04:26:49;;;;;;;1.50;1.27;;;7.60;99.90;;;;;;5049511;28;20296;-64
2023/11/16 04:29:17;;;;;;;2.07;1.20;;;7.60;99.90;;;;;;5032368;28;20211;-64
2023/11/16 04:31:47;;;;;;;1.87;1.30;;;7.60;99.90;;;;;;5023949;28;20202;-64
2023/11/16 04:34:14;;;;;;;1.37;1.20;;;7.60;99.90;;;;;;5031585;28;20635;-64
2023/11/16 04:36:42;;;;;;;1.33;1.13;;;7.60;99.90;;;;;;5032113;28;20609;-64
2023/11/16 04:39:09;;;;;;;1.50;1.30;;;7.60;99.90;;;;;;5042416;28;20210;-64
2023/11/16 04:41:45;;;;;;;1.50;1.20;;;7.70;99.90;;;;;;5048829;28;20204;-63
2023/11/16 04:44:12;;;;;;;1.17;1.07;;;7.70;99.90;;;;;;5047596;28;20217;-63
2023/11/16 04:46:46;;;;;;;1.17;1.00;;;7.70;99.90;;;;;;5049853;28;20814;-64
2023/11/16 04:49:13;;;;;;;1.20;1.10;;;7.70;99.90;;;;;;5049458;28;20193;-64
2023/11/16 04:51:41;;;;;;;1.30;1.20;;;7.70;99.90;;;;;;5049792;28;20209;-64
2023/11/16 04:54:09;;;;;;;2.53;1.20;;;7.70;99.90;;;;;;5048030;28;20278;-64
2023/11/16 04:56:36;;;;;;;1.17;1.10;;;7.70;99.90;;;;;;5047634;28;20232;-64
2023/11/16 04:59:05;;;;;;;1.27;1.13;;;7.70;99.90;;;;;;5049888;28;20204;-64
2023/11/16 05:01:32;;;;;;;1.57;1.00;;;7.70;99.90;;;;;;5044376;28;21462;-64
2023/11/16 05:04:00;;;;;;;1.10;1.10;;;7.60;99.90;;;;;;5051307;28;20246;-65
2023/11/16 05:06:27;;;;;;;1.30;1.20;;;7.60;99.90;;;;;;5053420;28;20661;-62
2023/11/16 05:08:54;;;;;;;1.07;1.07;;;7.50;99.90;;;;;;5052064;28;20253;-63
2023/11/16 05:11:22;;;;;;;1.07;1.00;;;7.50;99.90;;;;;;5052087;28;20218;-64
2023/11/16 05:13:49;;;;;;;1.50;1.40;;;7.50;99.90;;;;;;5052776;28;20286;-63
2023/11/16 05:16:18;;;;;;;1.83;1.57;;;7.40;99.90;;;;;;5053329;28;20297;-63
2023/11/16 05:18:45;;;;;;;3.03;1.60;;;7.50;99.90;;;;;;5051638;28;20187;-62
2023/11/16 05:21:13;;;;;;;1.90;1.53;;;7.50;99.90;;;;;;5053584;28;20200;-62
2023/11/16 05:23:41;;;;;;;3.60;2.33;;;7.50;99.90;;;;;;5053103;28;20197;-62
2023/11/16 05:26:08;;;;;;;3.23;2.27;;;7.50;99.90;;;;;;5052835;28;20217;-63
2023/11/16 05:28:35;;;;;;;3.40;2.00;;;7.50;99.90;;;;;;5052396;28;20195;-64
2023/11/16 05:31:04;;;;;;;3.80;3.00;;;7.40;99.90;;;;;;5053628;28;20289;-63
2023/11/16 05:33:33;;;;;;;2.30;2.00;;;7.40;99.90;;;;;;5051490;28;20197;-64
2023/11/16 05:36:01;;;;;;;3.87;2.53;;;7.30;99.90;;;;;;5046147;28;20250;-63
2023/11/16 05:38:28;;;;;;;3.83;2.23;;;7.30;99.90;;;;;;5051412;28;20198;-63
2023/11/16 05:40:55;;;;;;;2.40;2.20;;;7.30;99.90;;;;;;5052865;28;20272;-63
2023/11/16 05:43:22;;;;;;;3.53;2.83;;;7.20;99.90;;;;;;5051820;28;20220;-63
2023/11/16 05:45:49;;;;;;;2.73;2.27;;;7.50;99.90;;;;;;5053141;28;20220;-62
2023/11/16 05:48:17;;;;;;;3.57;2.20;;;6.60;99.90;;;;;;5049434;28;21042;-63
2023/11/16 05:50:46;;;;;;;5.93;2.90;;;7.30;99.90;;;;;;5035198;28;20205;-63
2023/11/16 05:53:13;;;;;;;2.70;2.43;;;7.30;99.90;;;;;;5052033;28;20252;-63
2023/11/16 05:55:40;;;;;;;6.37;2.90;;;7.30;99.90;;;;;;5052588;28;20240;-63
2023/11/16 05:58:07;;;;;;;5.60;3.20;;;7.30;99.90;;;;;;5051546;28;20214;-62
2023/11/16 06:00:36;;;;;;;4.07;2.73;;;7.30;99.90;;;;;;5052897;28;20298;-63
2023/11/16 06:03:05;;;;;;;4.73;2.93;;;7.20;99.90;;;;;;5051058;28;20199;-63
2023/11/16 06:05:33;;;;;;;3.83;2.77;;;7.20;99.90;;;;;;5048104;28;20227;-63
2023/11/16 06:08:02;;;;;;;4.63;2.77;;;7.20;99.90;;;;;;5051624;28;20300;-63
2023/11/16 06:10:29;;;;;;;3.30;2.33;;;7.80;99.90;;;;;;5051856;28;20272;-63
2023/11/16 06:12:57;;;;;;;3.57;2.37;;;7.10;99.90;;;;;;5051279;28;20202;-63
2023/11/16 06:15:26;;;;;;;2.93;2.30;;;7.10;99.90;;;;;;5051997;28;20543;-63
2023/11/16 06:17:54;;;;;;;2.77;2.07;;;7.20;99.90;;;;;;5051482;28;20187;-63
2023/11/16 06:20:22;;;;;;;3.47;2.67;;;7.20;99.90;;;;;;5052099;28;20571;-63
2023/11/16 06:22:50;;;;;;;4.47;2.30;;;7.10;99.90;;;;;;5052306;28;20662;-64
2023/11/16 06:25:18;;;;;;;4.57;2.70;;;7.10;99.90;;;;;;5052285;28;20199;-63
2023/11/16 06:27:46;;;;;;;4.60;2.70;;;7.10;99.90;;;;;;5051503;28;20747;-63
2023/11/16 06:30:15;;;;;;;3.10;2.60;;;7.10;99.90;;;;;;5052127;28;20222;-64
2023/11/16 06:32:45;;;;;;;5.37;2.83;;;7.10;99.90;;;;;;5052015;28;20210;-64
2023/11/16 06:35:12;;;;;;;3.57;2.70;;;7.10;99.90;;;;;;5051405;28;20198;-64
2023/11/16 06:37:39;;;;;;;3.53;2.50;;;7.10;99.90;;;;;;5051695;28;20245;-64
2023/11/16 06:40:10;;;;;;;3.53;2.23;;;7.40;99.90;;;;;;5051312;28;20202;-64
2023/11/16 06:42:39;;;;;;;2.87;2.50;;;7.00;99.90;;;;;;5051076;28;20195;-64
2023/11/16 06:45:07;;;;;;;3.47;2.33;;;7.00;99.90;;;;;;5051649;28;20194;-63
2023/11/16 06:47:35;;;;;;;2.57;2.10;;;7.00;99.90;;;;;;5050916;28;20265;-63
2023/11/16 06:50:04;;;;;;;2.70;2.37;;;7.10;99.90;;;;;;5050953;28;20212;-64
2023/11/16 06:52:31;;;;;;;3.23;2.50;;;7.00;99.90;;;;;;5051373;28;20274;-63
2023/11/16 06:54:59;;;;;;;3.93;2.70;;;7.00;99.90;;;;;;5050951;28;20665;-63
2023/11/16 06:57:26;;;;;;;3.13;2.33;;;7.00;99.90;;;;;;5047879;28;20284;-63
2023/11/16 06:59:55;;;;;;;3.90;2.40;;;7.00;99.90;;;;;;5048886;28;20199;-64
2023/11/16 07:02:23;;;;;;;3.07;2.30;;;6.90;99.90;;;;;;5030462;28;20202;-64
2023/11/16 07:04:50;;;;;;;2.97;2.10;;;7.00;99.90;;;;;;5040264;28;20263;-62
2023/11/16 07:07:18;;;;;;;4.93;3.23;;;7.00;99.90;;;;;;5011644;28;20222;-63
2023/11/16 07:09:49;;;;;;;5.50;3.50;;;7.00;99.90;;;;;;5027647;28;20213;-63
2023/11/16 07:12:20;;;;;;;5.50;3.07;;;7.30;99.90;;;;;;5036847;28;20201;-64
2023/11/16 07:14:48;;;;;;;10.17;4.30;;;6.80;99.90;;;;;;5043163;28;20731;-64
2023/11/16 07:17:17;;;;;;;4.77;3.33;;;6.80;99.90;;;;;;5042030;28;20301;-62
2023/11/16 07:19:47;;;;;;;4.50;2.90;;;6.80;99.90;;;;;;5048024;28;20530;-63
2023/11/16 07:22:14;;;;;;;6.00;3.47;;;6.70;99.90;;;;;;5042503;28;20279;-64
2023/11/16 07:24:43;;;;;;;5.27;3.43;;;6.70;99.90;;;;;;5047853;28;20203;-64
2023/11/16 07:27:11;;;;;;;10.73;5.27;;;6.70;99.90;;;;;;5036429;28;20309;-63
2023/11/16 07:29:39;;;;;;;9.87;5.13;;;6.70;99.90;;;;;;5045154;28;20197;-63
2023/11/16 07:32:07;;;;;;;10.93;6.83;;;6.70;99.90;;;;;;5028498;28;20224;-63
2023/11/16 07:34:39;;;;;;;10.17;5.43;;;6.70;99.90;;;;;;5047570;28;20679;-64
2023/11/16 07:37:06;;;;;;;8.50;4.93;;;6.80;99.90;;;;;;5042431;28;20862;-63
2023/11/16 07:39:33;;;;;;;6.73;4.97;;;6.80;99.90;;;;;;5044396;28;20263;-64
2023/11/16 07:42:01;;;;;;;8.20;5.03;;;6.90;99.90;;;;;;5046124;28;20195;-62
2023/11/16 07:44:28;;;;;;;7.93;4.47;;;7.00;99.90;;;;;;5048685;28;20194;-62
2023/11/16 07:46:55;;;;;;;9.03;5.03;;;6.90;99.90;;;;;;5030746;28;20218;-63
2023/11/16 07:49:23;;;;;;;6.27;4.00;;;6.90;99.90;;;;;;5047248;28;20209;-64
2023/11/16 07:51:53;;;;;;;7.23;4.23;;;6.90;99.90;;;;;;5046376;28;20190;-63
2023/11/16 07:54:21;;;;;;;5.20;3.77;;;6.90;99.90;;;;;;5048084;28;20199;-63
2023/11/16 07:56:52;;;;;;;4.90;3.53;;;6.90;99.90;;;;;;5047043;28;20193;-63
2023/11/16 07:59:19;;;;;;;4.67;3.47;;;7.10;99.90;;;;;;5048567;28;20199;-64
2023/11/16 08:01:54;;;;;;;4.53;3.20;;;7.20;99.90;;;;;;5039556;28;20624;-64
2023/11/16 08:04:21;;;;;;;7.10;3.13;;;7.40;99.90;;;;;;5041326;28;20916;-63
2023/11/16 08:06:48;;;;;;;4.27;2.90;;;7.40;99.90;;;;;;5038528;28;20194;-62
2023/11/16 08:09:19;;;;;;;4.07;2.90;;;7.40;99.90;;;;;;5047209;28;20205;-62
2023/11/16 08:11:53;;;;;;;4.57;3.00;;;7.40;99.90;;;;;;5046666;28;20537;-63
2023/11/16 08:14:24;;;;;;;3.73;3.00;;;7.50;99.90;;;;;;5047843;28;20191;-63
2023/11/16 08:16:55;;;;;;;4.50;2.67;;;7.50;99.90;;;;;;5047097;28;20190;-64
2023/11/16 08:19:22;;;;;;;4.10;3.23;;;7.70;99.90;;;;;;5034313;28;20207;-64
2023/11/16 08:21:49;;;;;;;4.40;3.20;;;7.90;99.90;;;;;;5045750;28;20192;-63
2023/11/16 08:24:18;;;;;;;4.50;3.13;;;8.10;99.90;;;;;;5047993;28;20263;-64
2023/11/16 08:26:46;;;;;;;6.03;3.17;;;8.10;99.90;;;;;;5047215;28;20196;-64
2023/11/16 08:29:13;;;;;;;8.27;4.80;;;8.10;99.90;;;;;;5048167;28;20619;-64
2023/11/16 08:31:40;;;;;;;6.43;4.37;;;8.00;99.90;;;;;;5028720;28;20199;-62
2023/11/16 08:34:08;;;;;;;8.90;5.00;;;8.00;99.90;;;;;;5046755;28;20198;-63
2023/11/16 08:36:36;;;;;;;5.77;4.00;;;7.90;99.90;;;;;;5046976;28;20207;-64
2023/11/16 08:39:06;;;;;;;6.33;4.40;;;7.90;99.90;;;;;;5047720;28;20549;-63
2023/11/16 08:41:35;;;;;;;5.87;3.73;;;7.80;99.90;;;;;;5047684;28;20224;-63
2023/11/16 08:44:03;;;;;;;6.50;3.80;;;7.80;99.90;;;;;;5048542;28;20200;-64
2023/11/16 08:46:33;;;;;;;8.47;4.53;;;7.80;99.90;;;;;;5033602;28;20202;-64
2023/11/16 08:49:00;;;;;;;4.93;3.20;;;7.80;99.90;;;;;;5047908;28;20305;-62
2023/11/16 08:51:28;;;;;;;6.60;4.80;;;7.80;99.90;;;;;;5034456;28;20217;-63
2023/11/16 08:53:56;;;;;;;8.23;5.03;;;7.70;99.90;;;;;;5051374;28;20557;-64
2023/11/16 08:56:24;;;;;;;10.13;5.90;;;7.70;99.90;;;;;;5050736;28;20220;-63
2023/11/16 08:58:53;;;;;;;7.40;4.33;;;7.70;99.90;;;;;;5050852;28;20287;-62
2023/11/16 09:01:24;;;;;;;5.77;3.77;;;7.60;99.90;;;;;;5032438;28;21002;-63
2023/11/16 09:03:51;;;;;;;8.67;4.50;;;7.60;99.90;;;;;;5049253;28;20580;-62
2023/11/16 09:06:21;;;;;;;7.17;4.20;;;7.70;99.90;;;;;;5046350;28;20211;-63
2023/11/16 09:08:49;;;;;;;7.20;4.30;;;7.70;99.90;;;;;;5049694;28;20683;-63
2023/11/16 09:11:17;;;;;;;8.07;5.10;;;7.60;99.90;;;;;;5051079;28;20594;-63
2023/11/16 09:13:45;;;;;;;7.13;4.63;;;7.70;99.90;;;;;;5043129;28;20610;-63
2023/11/16 09:16:14;;;;;;;7.60;4.57;;;7.70;99.90;;;;;;5045259;28;20201;-62
2023/11/16 09:18:42;;;;;;;8.63;4.60;;;7.70;99.90;;;;;;5045946;28;20620;-63
2023/11/16 09:21:12;;;;;;;9.63;5.23;;;7.70;99.90;;;;;;5051217;28;20204;-63
2023/11/16 09:23:39;;;;;;;9.67;5.40;;;7.70;99.90;;;;;;5048696;28;20331;-63
2023/11/16 09:26:09;;;;;;;9.00;4.93;;;7.80;99.90;;;;;;5051443;28;20222;-63
2023/11/16 09:28:38;;;;;;;11.67;6.10;;;8.20;99.90;;;;;;5040487;28;20271;-64
2023/11/16 09:31:10;;;;;;;12.57;6.30;;;8.40;99.90;;;;;;5049724;28;20203;-63
2023/11/16 09:33:39;;;;;;;10.13;5.97;;;8.40;99.90;;;;;;5046907;28;20568;-63
2023/11/16 09:36:08;;;;;;;10.63;5.77;;;8.40;99.90;;;;;;5044451;28;20186;-63
2023/11/16 09:38:36;;;;;;;11.20;5.97;;;8.30;99.90;;;;;;5049812;28;20304;-63
2023/11/16 09:41:15;;;;;;;9.13;5.23;;;8.20;99.90;;;;;;5050357;28;20285;-64
2023/11/16 09:43:45;;;;;;;10.13;5.73;;;8.10;99.90;;;;;;5040620;28;20185;-63
2023/11/16 09:46:17;;;;;;;7.17;4.77;;;8.10;99.90;;;;;;5035960;28;20304;-63
2023/11/16 09:48:46;;;;;;;7.63;5.47;;;8.10;99.90;;;;;;5045407;28;20208;-64
2023/11/16 09:51:14;;;;;;;6.70;4.43;;;8.20;99.90;;;;;;5034105;28;20289;-63
2023/11/16 09:53:46;;;;;;;5.67;4.03;;;8.30;99.90;;;;;;5047820;28;20563;-64
2023/11/16 09:56:19;;;;;;;9.23;5.13;;;8.40;99.90;;;;;;5050531;28;20196;-63
2023/11/16 09:58:48;;;;;;;8.10;5.03;;;8.40;99.90;;;;;;5048945;28;20199;-64
2023/11/16 10:01:17;;;;;;;9.40;5.80;;;8.40;99.90;;;;;;5050681;28;20193;-64
2023/11/16 10:03:48;;;;;;;9.37;5.70;;;8.40;99.90;;;;;;5047671;28;20234;-64
2023/11/16 10:06:20;;;;;;;10.90;6.03;;;8.50;99.90;;;;;;5039887;28;20197;-64
2023/11/16 10:08:49;;;;;;;12.10;6.33;;;8.60;99.90;;;;;;5048830;28;20210;-63
2023/11/16 10:11:22;;;;;;;12.13;5.77;;;8.60;99.90;;;;;;5030957;28;20241;-63
2023/11/16 10:13:54;;;;;;;8.43;5.33;;;8.60;99.90;;;;;;5043139;28;20240;-63
2023/11/16 10:16:26;;;;;;;11.00;5.70;;;8.70;99.90;;;;;;5020809;28;20312;-62
2023/11/16 10:19:00;;;;;;;8.37;5.07;;;8.70;99.90;;;;;;5043974;28;20261;-63
2023/11/16 10:21:28;;;;;;;8.80;5.23;;;8.70;99.90;;;;;;5050000;28;20678;-63
2023/11/16 10:23:59;;;;;;;11.27;5.73;;;8.80;99.90;;;;;;5048949;28;20217;-64
2023/11/16 10:26:27;;;;;;;8.23;5.17;;;8.90;99.90;;;;;;5049534;28;20617;-63
2023/11/16 10:28:54;;;;;;;8.73;5.63;;;8.90;99.90;;;;;;5048218;28;20243;-63
2023/11/16 10:31:21;;;;;;;9.60;5.00;;;9.00;99.90;;;;;;5032163;28;20247;-62
2023/11/16 10:33:50;;;;;;;9.60;5.10;;;9.10;99.90;;;;;;5046545;28;20303;-63
2023/11/16 10:36:23;;;;;;;9.87;5.10;;;9.10;99.90;;;;;;5047296;28;20198;-63
2023/11/16 10:38:51;;;;;;;7.23;4.67;;;9.00;99.90;;;;;;5046050;28;20195;-63
2023/11/16 10:41:19;;;;;;;6.90;4.43;;;8.90;99.90;;;;;;5048506;28;20279;-64
2023/11/16 10:43:52;;;;;;;6.27;4.13;;;8.80;99.90;;;;;;5048694;28;20194;-64
2023/11/16 10:46:20;;;;;;;10.10;5.33;;;8.70;99.90;;;;;;5047709;28;20613;-64
2023/11/16 10:48:49;;;;;;;7.50;4.80;;;8.70;99.90;;;;;;5045386;28;20205;-64
2023/11/16 10:51:21;;;;;;;9.63;4.97;;;8.60;99.90;;;;;;5042891;28;20682;-63
2023/11/16 10:53:53;;;;;;;7.13;4.50;;;8.60;99.90;;;;;;5046859;28;20563;-63
2023/11/16 10:56:21;;;;;;;11.53;5.23;;;8.50;99.90;;;;;;5048810;28;20534;-64
2023/11/16 10:58:50;;;;;;;9.00;4.37;;;8.50;99.90;;;;;;5047482;28;20192;-64
2023/11/16 11:01:18;;;;;;;9.07;4.83;;;8.40;99.90;;;;;;5049079;28;20695;-64
2023/11/16 11:03:46;;;;;;;6.83;4.30;;;8.30;99.90;;;;;;5047605;28;20246;-63
2023/11/16 11:06:18;;;;;;;7.20;5.00;;;8.30;99.90;;;;;;5049068;28;20271;-63
2023/11/16 11:08:48;;;;;;;7.60;4.43;;;8.30;99.90;;;;;;5044422;28;20216;-63
2023/11/16 11:11:24;;;;;;;8.43;4.50;;;8.30;99.90;;;;;;5029658;28;20202;-63
2023/11/16 11:13:53;;;;;;;5.63;4.10;;;8.30;99.90;;;;;;5047073;28;20298;-63
2023/11/16 11:16:23;;;;;;;5.97;4.53;;;8.30;99.90;;;;;;5045355;28;20633;-64
2023/11/16 11:18:51;;;;;;;7.87;4.23;;;8.20;99.90;;;;;;5047784;28;20206;-63
2023/11/16 11:21:21;;;;;;;6.43;4.30;;;8.30;99.90;;;;;;5048490;28;20283;-63
2023/11/16 11:24:04;;;;;;;4.80;3.57;;;8.20;99.90;;;;;;5040049;28;20226;-63
2023/11/16 11:26:41;;;;;;;4.63;3.63;;;8.20;99.90;;;;;;5048141;28;20571;-62
2023/11/16 11:29:09;;;;;;;5.27;3.50;;;8.30;99.90;;;;;;5038889;28;20306;-62
2023/11/16 11:31:46;;;;;;;8.60;4.70;;;8.30;99.90;;;;;;5040967;28;20563;-62
2023/11/16 11:34:15;;;;;;;6.73;4.90;;;8.20;99.90;;;;;;5039802;28;20219;-64
2023/11/16 11:36:42;;;;;;;8.63;5.77;;;8.30;99.90;;;;;;5048145;28;20201;-63
2023/11/16 11:39:14;;;;;;;8.70;5.60;;;8.20;99.90;;;;;;5040243;28;20242;-63
2023/11/16 11:41:54;;;;;;;8.20;5.10;;;8.20;99.90;;;;;;5048113;28;20214;-63
2023/11/16 11:44:21;;;;;;;7.53;4.73;;;8.20;99.90;;;;;;5045229;28;20245;-62
2023/11/16 11:46:48;;;;;;;7.13;4.90;;;8.20;99.90;;;;;;5048485;28;20254;-63
2023/11/16 11:49:16;;;;;;;10.03;5.20;;;8.20;99.90;;;;;;5044552;28;20583;-63
2023/11/16 11:51:45;;;;;;;8.83;5.20;;;8.30;99.90;;;;;;5047843;28;20281;-63
2023/11/16 11:54:14;;;;;;;6.50;4.43;;;8.30;99.90;;;;;;5044858;28;20663;-62
2023/11/16 11:56:45;;;;;;;8.30;5.57;;;8.30;99.90;;;;;;5047742;28;20299;-63
2023/11/16 11:59:12;;;;;;;8.03;5.10;;;8.30;99.90;;;;;;5045913;28;20193;-63
2023/11/16 12:01:42;;;;;;;7.47;5.37;;;8.30;99.90;;;;;;5048156;28;20206;-63
2023/11/16 12:04:09;;;;;;;6.87;4.30;;;8.40;99.90;;;;;;5023738;28;20377;-62
2023/11/16 12:06:37;;;;;;;5.83;4.10;;;8.40;99.90;;;;;;5022862;28;20267;-62
2023/11/16 12:09:06;;;;;;;10.93;5.57;;;8.50;99.90;;;;;;5022743;28;20280;-62
2023/11/16 12:11:35;;;;;;;7.27;4.40;;;8.40;99.90;;;;;;5027656;28;20208;-62
2023/11/16 12:14:03;;;;;;;7.07;4.40;;;8.50;99.90;;;;;;5031997;28;20275;-62
2023/11/16 12:16:30;;;;;;;7.00;4.47;;;8.50;99.90;;;;;;5027627;28;20305;-62
2023/11/16 12:18:58;;;;;;;11.20;6.10;;;8.60;99.90;;;;;;5021842;28;20251;-62
2023/11/16 12:21:26;;;;;;;9.77;5.27;;;8.60;99.90;;;;;;5032208;28;20196;-62
2023/11/16 12:23:57;;;;;;;6.57;4.10;;;8.70;99.90;;;;;;5026784;28;20204;-62
2023/11/16 12:26:28;;;;;;;9.63;4.83;;;8.70;99.90;;;;;;5031578;28;20258;-62
2023/11/16 12:28:57;;;;;;;7.20;4.33;;;8.70;99.90;;;;;;5027336;28;20212;-63
2023/11/16 12:31:27;;;;;;;5.07;3.93;;;8.80;99.90;;;;;;5031380;28;20412;-63
2023/11/16 12:33:55;;;;;;;8.20;4.70;;;8.80;99.90;;;;;;5029906;28;20581;-63
2023/11/16 12:36:24;;;;;;;6.87;3.60;;;8.80;99.90;;;;;;5030452;28;20192;-63
2023/11/16 12:38:53;;;;;;;6.60;4.10;;;8.80;99.90;;;;;;5030000;28;20232;-63
2023/11/16 12:41:20;;;;;;;4.93;3.80;;;8.80;99.90;;;;;;5030350;28;20730;-63
2023/11/16 12:43:47;;;;;;;5.30;3.60;;;8.90;99.90;;;;;;5028734;28;20211;-63
2023/11/16 12:46:16;;;;;;;9.60;5.20;;;8.90;99.90;;;;;;5024875;28;20224;-63
2023/11/16 12:48:44;;;;;;;6.10;3.70;;;8.90;99.90;;;;;;5029088;28;20224;-63
2023/11/16 12:51:16;;;;;;;3.90;3.37;;;8.90;99.90;;;;;;5025176;28;20204;-63
2023/11/16 12:53:43;;;;;;;3.43;3.07;;;8.90;99.90;;;;;;5030039;28;20186;-63
2023/11/16 12:56:11;;;;;;;3.70;2.60;;;8.90;99.90;;;;;;5023860;28;20200;-63
2023/11/16 12:58:39;;;;;;;2.90;2.60;;;8.90;99.90;;;;;;5030726;28;20268;-63
2023/11/16 13:01:06;;;;;;;3.27;2.90;;;8.80;99.90;;;;;;5031325;28;20207;-62
2023/11/16 13:03:35;;;;;;;3.30;2.70;;;8.80;99.90;;;;;;5029544;28;20505;-63